Time;durP1;ratioP1;P1;durP2;ratioP2;P2;SDS_P1;SDS_P2;PMS_P1;PMS_P2;Temp;Humidity;BMP_temperature;BMP_pressure;BME280_temperature;BME280_humidity;BME280_pressure;Samples;Min_cycle;Max_cycle;Signal;HPM_P1;HPM_P2
2022/12/29 07:33:43;;;;;;;11.75;6.30;;;;;;;2.95;70.21;98166.09;1871686;76;22578;-59
2022/12/29 07:36:11;;;;;;;13.55;6.62;;;;;;;2.70;70.36;98173.86;1827914;77;20868;-59
2022/12/29 07:38:38;;;;;;;16.45;8.08;;;;;;;2.53;70.59;98178.27;1814955;77;21319;-60
2022/12/29 07:41:05;;;;;;;20.27;14.20;;;;;;;2.40;70.70;98175.88;1803841;78;21500;-62
2022/12/29 07:43:32;;;;;;;23.35;12.82;;;;;;;2.28;70.97;98172.47;1791062;78;21008;-63
2022/12/29 07:46:09;;;;;;;11.35;6.05;;;;;;;2.21;71.50;98170.48;1750295;79;21434;-57
2022/12/29 07:48:36;;;;;;;10.60;5.28;;;;;;;2.16;71.73;98167.72;1822414;78;20966;-61
2022/12/29 07:51:03;;;;;;;9.18;4.90;;;;;;;2.11;71.71;98167.61;1818442;78;21291;-61
2022/12/29 07:53:30;;;;;;;9.05;4.90;;;;;;;2.08;72.08;98170.19;1813079;77;20959;-64
2022/12/29 07:55:58;;;;;;;11.30;5.72;;;;;;;2.04;72.06;98155.84;1811353;77;20919;-60
2022/12/29 07:58:25;;;;;;;17.95;8.70;;;;;;;2.04;71.94;98164.28;1806112;77;20967;-61
2022/12/29 08:00:55;;;;;;;9.05;4.40;;;;;;;2.05;71.86;98163.23;1818312;78;20952;-59
2022/12/29 08:03:23;;;;;;;10.70;4.65;;;;;;;2.05;71.46;98166.68;1808780;78;22109;-64
2022/12/29 08:05:50;;;;;;;7.85;5.00;;;;;;;2.04;71.72;98173.02;1820950;78;20870;-66
2022/12/29 08:08:19;;;;;;;9.78;4.78;;;;;;;2.05;71.94;98171.16;1818366;78;20916;-61
2022/12/29 08:10:46;;;;;;;9.60;4.58;;;;;;;2.06;72.02;98160.89;1818983;78;20904;-60
2022/12/29 08:13:13;;;;;;;12.40;6.62;;;;;;;2.07;71.58;98173.86;1826951;78;20927;-59
2022/12/29 08:15:41;;;;;;;12.07;6.83;;;;;;;2.09;71.94;98171.00;1811821;78;21706;-59
2022/12/29 08:18:08;;;;;;;17.35;8.58;;;;;;;2.11;71.96;98172.89;1823181;78;21418;-59
2022/12/29 08:20:35;;;;;;;11.08;6.80;;;;;;;2.11;72.30;98168.92;1820694;78;21003;-59
2022/12/29 08:23:01;;;;;;;16.07;8.68;;;;;;;2.11;72.13;98164.97;1811507;77;21433;-61
2022/12/29 08:25:28;;;;;;;13.05;6.40;;;;;;;2.15;72.08;98160.81;1814002;78;20903;-64
2022/12/29 08:27:55;;;;;;;14.05;6.75;;;;;;;2.15;71.54;98167.42;1825041;78;22113;-62
2022/12/29 08:30:21;;;;;;;8.90;5.10;;;;;;;2.17;71.80;98164.02;1824074;78;21386;-60
2022/12/29 08:32:48;;;;;;;8.63;4.90;;;;;;;2.20;70.99;98165.40;1827910;78;20930;-61
2022/12/29 08:35:16;;;;;;;10.25;5.90;;;;;;;2.24;70.65;98156.77;1828662;76;20986;-66
2022/12/29 08:37:42;;;;;;;12.98;7.12;;;;;;;2.29;70.16;98154.23;1830616;78;20875;-60
2022/12/29 08:40:10;;;;;;;17.55;8.38;;;;;;;2.33;69.89;98159.34;1788603;80;21242;-66
2022/12/29 08:42:37;;;;;;;15.85;9.73;;;;;;;2.39;69.92;98153.64;1794707;79;20958;-65
2022/12/29 08:45:04;;;;;;;11.28;7.42;;;;;;;2.44;69.76;98149.27;1782223;80;21465;-68
2022/12/29 08:47:31;;;;;;;10.98;5.83;;;;;;;2.49;69.55;98146.73;1786433;79;21489;-60
2022/12/29 08:49:58;;;;;;;11.18;5.25;;;;;;;2.54;69.19;98136.77;1787924;79;20954;-65
2022/12/29 08:52:25;;;;;;;10.28;5.33;;;;;;;2.57;69.26;98150.83;1779483;80;21906;-62
2022/12/29 08:54:52;;;;;;;13.18;4.62;;;;;;;2.60;69.31;98149.84;1787839;80;21403;-61
2022/12/29 08:57:20;;;;;;;8.43;4.40;;;;;;;2.67;68.52;98140.45;1791009;80;20907;-61
2022/12/29 08:59:48;;;;;;;14.40;4.65;;;;;;;2.76;68.18;98148.28;1777735;80;20915;-57
2022/12/29 09:02:15;;;;;;;11.55;4.03;;;;;;;2.84;67.87;98141.82;1775024;80;20985;-60
2022/12/29 09:04:41;;;;;;;8.90;5.05;;;;;;;2.91;67.35;98146.45;1780115;80;21258;-60
2022/12/29 09:07:08;;;;;;;11.18;6.60;;;;;;;2.99;66.85;98141.56;1787824;80;20981;-64
2022/12/29 09:09:35;;;;;;;11.97;4.90;;;;;;;3.09;67.29;98141.75;1787815;79;21036;-64
2022/12/29 09:12:03;;;;;;;9.50;4.40;;;;;;;3.19;67.05;98131.34;1788838;79;20856;-62
2022/12/29 09:14:30;;;;;;;7.70;3.85;;;;;;;3.28;66.40;98132.55;1783740;80;20902;-63
2022/12/29 09:19:43;;;;;;;13.20;4.83;;;;;;;3.38;65.51;98123.97;1791567;80;20907;-57
2022/12/29 09:22:16;;;;;;;8.35;3.83;;;;;;;3.40;65.56;98127.17;1787841;80;20892;-61
2022/12/29 09:24:44;;;;;;;10.40;4.90;;;;;;;3.43;64.83;98126.70;1786391;78;21030;-66
2022/12/29 09:27:11;;;;;;;14.25;5.37;;;;;;;3.44;64.99;98120.34;1753812;81;20995;-58
2022/12/29 09:29:37;;;;;;;11.05;4.53;;;;;;;3.47;64.97;98117.22;1755073;81;21071;-60
2022/12/29 09:32:04;;;;;;;13.22;3.92;;;;;;;3.48;64.55;98110.09;1758469;81;21569;-60
2022/12/29 09:34:31;;;;;;;12.53;5.83;;;;;;;3.50;64.36;98107.99;1773481;80;20991;-56
2022/12/29 09:36:58;;;;;;;7.90;4.30;;;;;;;3.52;64.71;98103.25;1774080;80;20958;-63
2022/12/29 09:39:25;;;;;;;9.75;5.12;;;;;;;3.53;63.99;98104.36;1774745;80;21044;-58
2022/12/29 09:42:21;;;;;;;10.03;5.28;;;;;;;3.54;64.27;98094.02;1774434;80;21250;-61
2022/12/29 09:45:05;;;;;;;12.45;5.65;;;;;;;3.57;63.96;98098.03;1773581;80;21093;-66
2022/12/29 09:47:32;;;;;;;13.08;6.30;;;;;;;3.57;63.17;98098.03;1774659;80;20995;-63
2022/12/29 09:50:07;;;;;;;10.98;4.92;;;;;;;3.55;63.23;98097.48;1774588;80;20986;-59
2022/12/29 09:52:41;;;;;;;;;;;;;;;3.52;63.18;98106.71;1777365;80;21512;-61
2022/12/29 09:55:22;;;;;;;7.87;4.65;;;;;;;3.54;63.17;98091.89;1774794;80;21214;-64
2022/12/29 09:58:00;;;;;;;16.10;4.45;;;;;;;3.54;62.92;98095.34;1774285;80;20899;-60
2022/12/29 10:00:40;;;;;;;7.75;4.20;;;;;;;3.54;63.27;98096.67;1773961;80;20982;-67
2022/12/29 10:03:16;;;;;;;11.20;4.60;;;;;;;3.52;63.27;98090.82;1774783;80;20958;-63
2022/12/29 10:06:30;;;;;;;13.65;5.40;;;;;;;3.52;63.25;98092.14;1774960;80;20942;-66
2022/12/29 10:09:24;;;;;;;12.95;6.15;;;;;;;3.52;63.53;98092.14;1774782;80;21254;-71
2022/12/29 10:12:26;;;;;;;13.58;6.67;;;;;;;3.50;63.48;98092.11;1774730;80;20895;-66
2022/12/29 10:15:12;;;;;;;13.68;7.85;;;;;;;3.50;63.89;98084.97;1774823;80;21006;-64
2022/12/29 10:18:18;;;;;;;18.85;8.90;;;;;;;3.51;64.01;98079.94;1763771;80;20930;-60
2022/12/29 10:20:59;;;;;;;18.67;9.53;;;;;;;3.53;63.67;98087.66;1780069;80;20978;-63
2022/12/29 10:23:43;;;;;;;17.32;8.68;;;;;;;3.52;63.66;98088.69;1788208;80;21069;-64
2022/12/29 10:26:15;;;;;;;12.95;8.48;;;;;;;3.50;63.59;98088.94;1784912;80;20879;-60
2022/12/29 10:28:59;;;;;;;11.78;6.03;;;;;;;3.50;63.74;98074.38;1785260;79;20888;-67
2022/12/29 10:31:34;;;;;;;13.05;5.58;;;;;;;3.48;63.37;98073.82;1773991;81;21000;-66
2022/12/29 10:34:05;;;;;;;12.28;4.58;;;;;;;3.49;63.51;98068.78;1789025;79;21387;-67
2022/12/29 10:36:40;;;;;;;6.10;3.90;;;;;;;3.50;63.66;98073.56;1755207;80;21817;-66
2022/12/29 10:39:32;;;;;;;16.12;7.72;;;;;;;3.51;63.10;98056.65;1784943;79;21106;-65
2022/12/29 10:42:26;;;;;;;12.80;5.58;;;;;;;3.51;63.17;98049.48;1778899;80;20897;-60
2022/12/29 10:44:55;;;;;;;8.35;4.72;;;;;;;3.53;63.15;98043.44;1786424;79;20903;-62
2022/12/29 10:47:26;;;;;;;17.98;7.92;;;;;;;3.54;62.50;98041.05;1784614;79;20853;-68
2022/12/29 10:49:52;;;;;;;9.10;4.80;;;;;;;3.55;62.79;98029.43;1778179;80;21768;-59
